Time;durP1;ratioP1;P1;durP2;ratioP2;P2;SDS_P1;SDS_P2;PMS_P1;PMS_P2;Temp;Humidity;BMP_temperature;BMP_pressure;BME280_temperature;BME280_humidity;BME280_pressure;Samples;Min_cycle;Max_cycle;Signal;HPM_P1;HPM_P2
2021/08/22 00:01:41;;;;;;;3.90;3.08;;;;;;;17.12;59.65;96766.44;5113273;28;20024;-62
2021/08/22 00:04:06;;;;;;;4.30;2.83;;;;;;;17.09;60.02;96755.19;5113319;28;20469;-62
2021/08/22 00:06:32;;;;;;;5.45;3.30;;;;;;;17.02;60.30;96757.34;5113285;28;20389;-60
2021/08/22 00:08:57;;;;;;;2.70;2.50;;;;;;;17.00;58.79;96759.22;5113313;28;20107;-62
2021/08/22 00:11:23;;;;;;;6.07;3.28;;;;;;;16.95;58.40;96759.53;5113283;28;20435;-60
2021/08/22 00:13:49;;;;;;;3.90;3.13;;;;;;;16.93;58.62;96758.75;5113261;28;20020;-62
2021/08/22 00:16:14;;;;;;;3.35;3.03;;;;;;;16.97;58.78;96759.41;5113279;28;20023;-62
2021/08/22 00:18:40;;;;;;;4.25;3.20;;;;;;;17.00;59.05;96754.78;5113178;28;20039;-62
2021/08/22 00:21:05;;;;;;;4.35;2.80;;;;;;;16.97;59.49;96757.63;5113182;28;20024;-62
2021/08/22 00:23:32;;;;;;;4.05;3.30;;;;;;;16.92;59.90;96754.44;5112870;28;20043;-61
2021/08/22 00:25:58;;;;;;;3.35;2.97;;;;;;;16.85;60.28;96756.56;5113103;28;20028;-60
2021/08/22 00:28:23;;;;;;;6.47;3.13;;;;;;;16.80;58.83;96759.47;5113008;28;20035;-61
2021/08/22 00:30:49;;;;;;;4.57;3.33;;;;;;;16.71;58.96;96757.41;5113145;28;20080;-59
2021/08/22 00:33:15;;;;;;;4.32;2.90;;;;;;;16.71;59.77;96754.78;5113096;28;20023;-61
2021/08/22 00:35:40;;;;;;;3.88;3.17;;;;;;;16.73;59.74;96760.78;5112904;28;20105;-61
2021/08/22 00:38:06;;;;;;;3.50;2.83;;;;;;;16.73;59.52;96762.56;5113015;28;20031;-60
2021/08/22 00:40:31;;;;;;;3.53;2.83;;;;;;;16.74;58.70;96757.19;5113136;28;20451;-63
2021/08/22 00:42:57;;;;;;;4.80;3.30;;;;;;;16.74;59.10;96754.56;5113008;28;20020;-61
2021/08/22 00:45:22;;;;;;;5.20;3.30;;;;;;;16.73;59.34;96765.22;5113073;28;20040;-61
2021/08/22 00:47:48;;;;;;;3.85;3.08;;;;;;;16.74;58.94;96753.72;5112966;28;20385;-61
2021/08/22 00:50:16;;;;;;;3.65;2.75;;;;;;;16.73;58.82;96759.94;5112869;28;20020;-61
2021/08/22 00:52:42;;;;;;;3.58;2.95;;;;;;;16.71;58.74;96756.56;5116528;28;20476;-63
2021/08/22 00:55:08;;;;;;;3.75;2.92;;;;;;;16.61;58.66;96765.00;5116519;28;20107;-60
2021/08/22 00:57:35;;;;;;;7.43;3.10;;;;;;;16.50;59.19;96756.88;5116467;28;20020;-61
2021/08/22 01:00:05;;;;;;;4.07;3.30;;;;;;;16.46;58.75;96758.84;5116354;28;20034;-60
2021/08/22 01:02:36;;;;;;;4.60;3.17;;;;;;;16.46;58.81;96761.47;5116435;28;20038;-61
2021/08/22 01:05:19;;;;;;;;;;;;;;;16.44;59.31;96759.88;5116800;28;20024;-60
2021/08/22 01:08:20;;;;;;;5.70;3.00;;;;;;;16.32;59.74;96759.66;5116252;28;19912;-60
2021/08/22 01:10:48;;;;;;;4.93;3.17;;;;;;;16.16;60.18;96755.25;5092217;28;20196;-60
2021/08/22 01:13:17;;;;;;;3.10;2.80;;;;;;;16.07;59.77;96758.41;5116210;28;20035;-61
2021/08/22 01:15:45;;;;;;;5.45;3.25;;;;;;;16.04;59.82;96758.59;5116017;28;20151;-61
2021/08/22 01:18:16;;;;;;;4.47;3.20;;;;;;;16.03;59.70;96754.25;5116052;28;20033;-62
2021/08/22 01:21:11;;;;;;;3.60;3.13;;;;;;;16.03;59.87;96746.34;5116168;28;20043;-61
2021/08/22 01:24:01;;;;;;;3.60;3.10;;;;;;;16.02;60.29;96750.75;5115760;28;20051;-61
2021/08/22 01:26:30;;;;;;;4.15;3.08;;;;;;;15.88;60.24;96751.53;5115898;28;20114;-60
2021/08/22 01:28:59;;;;;;;13.88;3.90;;;;;;;15.86;60.53;96756.03;5115862;28;20377;-62
2021/08/22 01:31:29;;;;;;;4.70;3.58;;;;;;;15.79;60.37;96755.53;5115796;28;20020;-60
2021/08/22 01:33:57;;;;;;;4.80;3.27;;;;;;;15.76;60.54;96747.78;5115853;28;20084;-61
2021/08/22 01:36:23;;;;;;;4.40;2.88;;;;;;;15.73;60.82;96755.88;5115746;28;20034;-60
2021/08/22 01:38:50;;;;;;;4.15;3.38;;;;;;;15.68;60.71;96752.63;5115565;28;20024;-61
2021/08/22 01:41:17;;;;;;;3.28;2.90;;;;;;;15.59;61.24;96743.44;5115585;28;20104;-61
2021/08/22 01:43:45;;;;;;;5.43;3.35;;;;;;;15.58;61.29;96740.88;5115555;28;20028;-59
2021/08/22 01:46:11;;;;;;;4.57;3.67;;;;;;;15.53;61.52;96746.41;5115504;28;20393;-60
2021/08/22 01:48:41;;;;;;;5.82;3.03;;;;;;;15.49;61.77;96747.50;5115407;28;20027;-61
2021/08/22 01:51:08;;;;;;;3.47;2.47;;;;;;;15.43;62.13;96740.78;5115366;28;20064;-61
2021/08/22 01:53:35;;;;;;;4.78;3.65;;;;;;;15.41;62.08;96743.50;5115360;28;20019;-62
2021/08/22 01:56:01;;;;;;;7.63;3.70;;;;;;;15.41;62.24;96746.16;5115224;28;20019;-60
2021/08/22 01:58:27;;;;;;;5.28;3.47;;;;;;;15.37;62.36;96747.25;5115359;28;20020;-61
2021/08/22 02:00:53;;;;;;;4.32;3.40;;;;;;;15.29;62.27;96731.84;5115274;28;20032;-61
2021/08/22 02:03:22;;;;;;;4.35;3.38;;;;;;;15.29;62.60;96738.91;5114797;28;20124;-62
2021/08/22 02:05:53;;;;;;;4.82;3.67;;;;;;;15.26;63.17;96734.66;5115306;28;20106;-62
2021/08/22 02:08:19;;;;;;;;;;;;;;;15.19;63.54;96741.19;5115612;28;20027;-60
2021/08/22 02:10:54;;;;;;;4.40;3.85;;;;;;;15.08;63.25;96739.13;5115133;28;20266;-61
2021/08/22 02:13:24;;;;;;;6.55;4.03;;;;;;;15.11;63.31;96738.97;5115132;28;20023;-59
2021/08/22 02:15:55;;;;;;;5.45;3.97;;;;;;;15.12;63.17;96734.56;5114838;28;20028;-59
2021/08/22 02:18:22;;;;;;;5.15;3.50;;;;;;;15.16;63.58;96736.09;5115006;27;20024;-61
2021/08/22 02:20:48;;;;;;;4.82;3.88;;;;;;;15.15;63.72;96737.03;5114922;28;20027;-62
2021/08/22 02:23:16;;;;;;;12.15;3.95;;;;;;;14.96;64.76;96731.88;5114547;28;20468;-61
2021/08/22 02:25:43;;;;;;;4.60;3.53;;;;;;;14.93;64.77;96737.31;5114805;28;20030;-61
2021/08/22 02:28:09;;;;;;;5.25;3.95;;;;;;;14.98;64.58;96727.38;5114721;28;20088;-60
2021/08/22 02:30:36;;;;;;;5.43;3.60;;;;;;;15.01;64.18;96724.56;5114631;28;20469;-62
2021/08/22 02:33:06;;;;;;;5.10;4.00;;;;;;;14.89;64.42;96736.59;5114669;28;20027;-60
2021/08/22 02:35:32;;;;;;;4.50;3.73;;;;;;;14.88;64.72;96727.88;5114579;28;20063;-60
2021/08/22 02:37:58;;;;;;;3.88;3.47;;;;;;;14.91;65.01;96722.41;5114495;28;20035;-60
2021/08/22 02:40:23;;;;;;;4.88;4.15;;;;;;;14.88;65.09;96729.66;5114443;28;20027;-60
2021/08/22 02:42:50;;;;;;;5.45;3.85;;;;;;;14.89;65.40;96726.06;5113224;28;20023;-62
2021/08/22 02:45:15;;;;;;;5.05;4.10;;;;;;;14.84;65.47;96731.59;5114346;28;20026;-61
2021/08/22 02:47:41;;;;;;;6.60;4.30;;;;;;;14.85;65.76;96727.19;5114272;28;20110;-62
2021/08/22 02:50:07;;;;;;;4.93;3.80;;;;;;;14.83;65.60;96727.25;5114294;28;20051;-62
2021/08/22 02:52:32;;;;;;;5.30;4.00;;;;;;;14.82;65.57;96730.81;5114340;28;20026;-62
2021/08/22 02:54:58;;;;;;;4.90;3.95;;;;;;;14.83;65.83;96734.28;5114168;28;20540;-60
2021/08/22 02:57:23;;;;;;;5.78;3.97;;;;;;;14.81;65.98;96729.09;5114161;28;20034;-61
2021/08/22 02:59:49;;;;;;;7.70;4.47;;;;;;;14.77;65.80;96725.78;5114119;28;20071;-61
2021/08/22 03:02:15;;;;;;;10.63;4.55;;;;;;;14.76;66.21;96729.34;5114025;28;20409;-61
2021/08/22 03:04:40;;;;;;;8.52;4.30;;;;;;;14.81;65.79;96725.63;5113919;28;20360;-61
2021/08/22 03:07:06;;;;;;;5.90;4.05;;;;;;;14.81;66.05;96721.19;5114037;28;20030;-60
2021/08/22 03:09:32;;;;;;;4.47;3.78;;;;;;;14.82;65.50;96722.94;5114099;28;20362;-59
2021/08/22 03:11:57;;;;;;;5.35;4.35;;;;;;;14.80;65.73;96727.41;5113799;28;20015;-59
2021/08/22 03:14:23;;;;;;;4.72;4.22;;;;;;;14.77;66.12;96719.63;5113092;28;20023;-62
2021/08/22 03:16:49;;;;;;;6.13;4.38;;;;;;;14.76;66.07;96717.94;5113701;28;20062;-61
2021/08/22 03:19:14;;;;;;;5.13;4.10;;;;;;;14.75;66.10;96730.25;5113953;28;20473;-62
2021/08/22 03:21:44;;;;;;;5.18;4.20;;;;;;;14.75;66.21;96717.09;5113826;28;20043;-60
2021/08/22 03:24:10;;;;;;;7.63;4.37;;;;;;;14.81;66.02;96721.19;5113447;28;20389;-60
2021/08/22 03:26:36;;;;;;;6.65;4.78;;;;;;;14.80;65.74;96722.16;5113653;28;20028;-60
2021/08/22 03:29:01;;;;;;;5.78;4.28;;;;;;;14.75;65.62;96717.09;5113712;28;20020;-62
2021/08/22 03:31:27;;;;;;;6.00;4.63;;;;;;;14.74;66.44;96722.44;5113732;28;20028;-60
2021/08/22 03:33:52;;;;;;;5.20;3.90;;;;;;;14.76;66.56;96724.06;5113663;28;20137;-61
2021/08/22 03:36:18;;;;;;;7.85;4.63;;;;;;;14.72;66.51;96721.69;5113474;28;20036;-62
2021/08/22 03:38:45;;;;;;;5.93;4.35;;;;;;;14.66;66.76;96723.69;5113552;28;20039;-58
2021/08/22 03:41:11;;;;;;;10.45;4.70;;;;;;;14.69;67.12;96722.66;5113538;28;20028;-61
2021/08/22 03:43:36;;;;;;;5.65;4.50;;;;;;;14.74;66.43;96723.28;5113617;28;20019;-59
2021/08/22 03:46:02;;;;;;;4.90;4.20;;;;;;;14.74;66.78;96725.06;5113643;28;20355;-60
2021/08/22 03:48:27;;;;;;;5.43;4.05;;;;;;;14.68;66.93;96731.50;5113445;28;20042;-62
2021/08/22 03:50:53;;;;;;;5.68;4.38;;;;;;;14.69;66.79;96725.28;5113547;28;20038;-60
2021/08/22 03:53:19;;;;;;;4.95;4.25;;;;;;;14.62;66.97;96721.28;5113581;28;20055;-60
2021/08/22 03:55:45;;;;;;;7.22;4.68;;;;;;;14.62;67.19;96724.78;5113374;28;20110;-60
2021/08/22 03:58:11;;;;;;;6.65;3.92;;;;;;;14.75;67.11;96734.69;5113404;28;20083;-61
2021/08/22 04:00:36;;;;;;;8.38;4.47;;;;;;;14.79;66.69;96730.97;5113363;28;20020;-62
2021/08/22 04:03:02;;;;;;;5.53;4.03;;;;;;;14.81;66.73;96733.53;5113353;28;20096;-62
2021/08/22 04:05:28;;;;;;;7.10;4.88;;;;;;;14.85;66.89;96735.94;5113267;28;20081;-61
2021/08/22 04:07:55;;;;;;;5.32;4.35;;;;;;;14.95;66.46;96745.97;5113298;28;20027;-60
2021/08/22 04:10:21;;;;;;;7.22;3.97;;;;;;;15.04;66.63;96742.84;5113299;28;20024;-61
2021/08/22 04:12:46;;;;;;;5.50;4.43;;;;;;;15.13;66.13;96746.78;5113310;28;20035;-61
2021/08/22 04:15:12;;;;;;;4.90;3.97;;;;;;;15.27;66.11;96746.88;5113094;28;20376;-61
2021/08/22 04:17:38;;;;;;;5.65;4.20;;;;;;;15.43;65.71;96747.84;5113334;28;20023;-60
2021/08/22 04:20:04;;;;;;;6.25;4.50;;;;;;;15.47;65.72;96742.31;5113200;28;20020;-61
2021/08/22 04:22:31;;;;;;;7.05;4.25;;;;;;;15.57;65.16;96750.59;5113121;28;20048;-61
2021/08/22 04:24:57;;;;;;;8.02;4.38;;;;;;;15.68;65.12;96743.88;5114030;28;20399;-61
2021/08/22 04:27:23;;;;;;;5.40;4.07;;;;;;;15.62;64.96;96756.44;5117124;28;20098;-62
2021/08/22 04:29:48;;;;;;;6.88;4.25;;;;;;;15.76;65.35;96755.69;5117084;28;20020;-62
2021/08/22 04:32:14;;;;;;;5.78;4.10;;;;;;;15.84;65.06;96757.91;5116960;27;20488;-62
2021/08/22 04:34:39;;;;;;;5.35;4.40;;;;;;;16.12;64.95;96755.50;5117023;28;20019;-61
2021/08/22 04:37:05;;;;;;;5.82;4.35;;;;;;;16.46;64.13;96763.28;5116796;28;20522;-60
2021/08/22 04:39:30;;;;;;;6.00;4.28;;;;;;;16.82;63.15;96753.28;5116818;28;20481;-60
2021/08/22 04:41:56;;;;;;;7.82;4.10;;;;;;;17.28;62.22;96750.47;5116813;28;20422;-60
2021/08/22 04:44:22;;;;;;;4.57;3.75;;;;;;;17.72;60.98;96758.38;5116699;28;20051;-61
2021/08/22 04:46:47;;;;;;;5.03;3.88;;;;;;;18.27;60.36;96757.56;5116674;28;20024;-60
2021/08/22 04:49:13;;;;;;;5.47;3.60;;;;;;;18.76;58.95;96755.22;5116644;28;20031;-60
2021/08/22 04:51:39;;;;;;;5.03;3.80;;;;;;;19.18;57.36;96750.59;5116604;28;20028;-59
2021/08/22 04:54:05;;;;;;;5.40;3.88;;;;;;;19.58;56.55;96756.69;5116498;28;20027;-62
2021/08/22 04:56:30;;;;;;;5.07;3.70;;;;;;;20.09;56.17;96760.19;5116385;28;20027;-61
2021/08/22 04:58:56;;;;;;;4.90;3.70;;;;;;;20.56;54.54;96759.41;5116391;28;20016;-62
2021/08/22 05:01:22;;;;;;;5.20;3.17;;;;;;;20.99;53.00;96757.97;5116402;28;20022;-62
2021/08/22 05:03:47;;;;;;;8.63;3.38;;;;;;;21.40;51.73;96761.00;5116305;28;20031;-61
2021/08/22 05:06:13;;;;;;;5.10;3.42;;;;;;;21.73;51.54;96758.44;5116358;28;20031;-62
2021/08/22 05:08:39;;;;;;;4.53;3.25;;;;;;;22.04;51.25;96758.69;5116265;28;20020;-62
2021/08/22 05:11:05;;;;;;;4.57;3.75;;;;;;;22.44;50.42;96769.66;5116226;28;20043;-62
2021/08/22 05:13:36;;;;;;;5.75;3.30;;;;;;;22.88;48.84;96758.94;5116101;28;20094;-60
2021/08/22 05:16:06;;;;;;;5.32;4.00;;;;;;;23.17;48.29;96763.59;5116028;28;20457;-62
2021/08/22 05:18:32;;;;;;;7.47;3.35;;;;;;;23.46;47.93;96765.59;5116167;28;20440;-62
2021/08/22 05:20:57;;;;;;;5.40;3.50;;;;;;;23.85;46.88;96764.88;5116102;28;20023;-61
2021/08/22 05:23:23;;;;;;;6.80;4.28;;;;;;;24.19;45.96;96768.19;5115776;28;20431;-61
2021/08/22 05:25:49;;;;;;;7.15;3.53;;;;;;;24.53;44.22;96772.31;5114647;28;20118;-60
2021/08/22 05:28:15;;;;;;;5.18;4.13;;;;;;;24.86;43.60;96775.50;5115910;28;20058;-61
2021/08/22 05:30:40;;;;;;;4.47;3.67;;;;;;;25.08;44.29;96765.50;5115785;28;20019;-63
2021/08/22 05:33:06;;;;;;;3.85;3.45;;;;;;;25.33;43.64;96760.50;5115771;28;20016;-61
2021/08/22 05:35:37;;;;;;;5.72;3.65;;;;;;;25.57;42.94;96762.66;5115602;28;20023;-61
2021/08/22 05:38:05;;;;;;;5.55;4.20;;;;;;;25.68;42.33;96764.34;5114889;28;20106;-61
2021/08/22 05:40:31;;;;;;;6.25;3.60;;;;;;;25.98;42.24;96770.34;5115630;28;20024;-62
2021/08/22 05:42:56;;;;;;;5.15;3.38;;;;;;;26.33;42.10;96767.06;5115670;27;20526;-60
2021/08/22 05:45:22;;;;;;;6.65;3.40;;;;;;;26.64;39.67;96768.50;5115560;27;20028;-60
2021/08/22 05:47:47;;;;;;;3.45;3.15;;;;;;;26.81;39.68;96775.69;5115649;28;20027;-60
2021/08/22 05:50:13;;;;;;;4.72;3.08;;;;;;;27.06;37.27;96769.69;5115444;28;20084;-62
2021/08/22 05:52:38;;;;;;;3.70;2.97;;;;;;;27.25;38.77;96763.28;5115433;28;20020;-62
2021/08/22 05:55:09;;;;;;;9.07;3.63;;;;;;;27.54;38.44;96759.38;5115304;28;20020;-63
2021/08/22 05:57:35;;;;;;;4.22;3.00;;;;;;;27.78;35.50;96759.69;5115296;28;20058;-62
2021/08/22 06:00:01;;;;;;;5.90;2.90;;;;;;;27.88;37.69;96765.78;5115315;28;20051;-60
2021/08/22 06:02:27;;;;;;;4.88;3.67;;;;;;;28.07;37.89;96770.03;5115175;28;20024;-62
2021/08/22 06:04:52;;;;;;;5.70;3.17;;;;;;;28.37;37.75;96759.72;5115162;28;20031;-62
2021/08/22 06:07:21;;;;;;;4.47;3.30;;;;;;;28.68;37.05;96760.88;5115266;28;20058;-60
2021/08/22 06:09:51;;;;;;;4.55;3.65;;;;;;;29.01;37.29;96763.59;5115126;28;20602;-62
2021/08/22 06:12:18;;;;;;;3.20;2.80;;;;;;;29.33;37.38;96770.94;5115124;28;20027;-62
2021/08/22 06:14:44;;;;;;;3.63;2.85;;;;;;;29.56;34.77;96762.16;5114978;28;20028;-62
2021/08/22 06:17:10;;;;;;;6.97;3.15;;;;;;;29.70;34.82;96758.72;5114801;28;20015;-63
2021/08/22 06:19:35;;;;;;;5.75;2.97;;;;;;;29.90;33.80;96755.59;5114858;28;20030;-61
2021/08/22 06:22:03;;;;;;;4.95;3.15;;;;;;;30.01;33.30;96757.09;5114874;28;20068;-62
2021/08/22 06:24:28;;;;;;;7.40;3.00;;;;;;;29.92;34.17;96767.06;5114538;28;20050;-59
2021/08/22 06:26:54;;;;;;;8.18;2.88;;;;;;;30.02;32.84;96766.84;5114690;28;20029;-61
2021/08/22 06:29:19;;;;;;;6.78;3.35;;;;;;;30.00;32.81;96772.41;5114816;28;20050;-60
2021/08/22 06:31:45;;;;;;;6.93;3.10;;;;;;;29.72;33.60;96774.72;5114653;28;20487;-61
2021/08/22 06:34:11;;;;;;;4.72;2.88;;;;;;;29.87;32.42;96769.44;5114651;28;20400;-60
2021/08/22 06:36:39;;;;;;;4.57;2.55;;;;;;;30.17;32.60;96768.81;5114384;28;20036;-61
2021/08/22 06:39:07;;;;;;;3.05;2.55;;;;;;;30.43;32.40;96764.94;5114512;28;20047;-59
2021/08/22 06:41:33;;;;;;;3.58;2.80;;;;;;;30.63;30.97;96768.81;5114352;28;20024;-61
2021/08/22 06:43:59;;;;;;;3.65;2.80;;;;;;;30.45;31.15;96770.97;5114370;28;20415;-60
2021/08/22 06:46:25;;;;;;;6.15;2.97;;;;;;;30.69;29.96;96774.50;5114483;28;20085;-62
2021/08/22 06:48:51;;;;;;;5.55;2.97;;;;;;;30.80;30.22;96771.44;5114372;28;20036;-62
2021/08/22 06:51:17;;;;;;;5.35;3.28;;;;;;;30.73;30.89;96765.06;5114182;28;20019;-60
2021/08/22 06:53:43;;;;;;;4.20;2.92;;;;;;;31.03;29.69;96773.22;5114296;28;20035;-60
2021/08/22 06:56:08;;;;;;;10.73;3.17;;;;;;;31.39;29.42;96769.88;5114187;28;20024;-60
2021/08/22 06:58:34;;;;;;;8.27;3.10;;;;;;;31.54;29.66;96773.59;5114139;28;20107;-61
2021/08/22 07:01:00;;;;;;;4.63;2.58;;;;;;;31.76;29.21;96772.63;5114052;28;20034;-62
2021/08/22 07:03:26;;;;;;;9.70;3.10;;;;;;;32.06;28.00;96779.06;5114081;27;20031;-60
2021/08/22 07:05:52;;;;;;;5.22;3.38;;;;;;;32.12;28.86;96776.44;5114012;28;20366;-61
2021/08/22 07:08:18;;;;;;;3.95;3.00;;;;;;;32.30;29.07;96771.63;5113927;28;20024;-62
2021/08/22 07:10:43;;;;;;;3.35;3.05;;;;;;;32.34;27.74;96767.50;5113977;28;20123;-60
2021/08/22 07:13:09;;;;;;;3.80;3.20;;;;;;;32.46;26.03;96770.53;5114039;28;20020;-59
2021/08/22 07:15:35;;;;;;;3.75;3.20;;;;;;;32.46;25.08;96770.53;5113797;28;20094;-62
2021/08/22 07:18:01;;;;;;;4.60;2.85;;;;;;;32.62;27.08;96775.75;5113738;28;20096;-62
2021/08/22 07:20:27;;;;;;;4.10;3.08;;;;;;;32.87;26.52;96775.31;5113826;28;20036;-61
2021/08/22 07:22:53;;;;;;;3.90;3.17;;;;;;;33.06;24.96;96774.88;5112554;28;20039;-60
2021/08/22 07:25:20;;;;;;;4.50;2.83;;;;;;;32.74;25.09;96777.91;5113589;28;20534;-60
2021/08/22 07:27:48;;;;;;;4.13;3.10;;;;;;;31.96;26.62;96785.59;5113693;28;20063;-62
2021/08/22 07:30:15;;;;;;;4.32;3.30;;;;;;;32.09;26.40;96776.00;5113652;28;20035;-62
2021/08/22 07:32:40;;;;;;;5.13;3.33;;;;;;;32.03;26.07;96774.88;5113587;28;20027;-60
2021/08/22 07:35:06;;;;;;;4.28;3.40;;;;;;;31.82;26.38;96783.75;5113510;28;20035;-61
2021/08/22 07:37:33;;;;;;;3.83;3.42;;;;;;;31.50;26.23;96779.38;5113484;28;20388;-62
2021/08/22 07:39:59;;;;;;;3.85;2.90;;;;;;;31.81;27.36;96779.38;5113571;28;20520;-60
2021/08/22 07:42:25;;;;;;;4.82;3.15;;;;;;;31.90;26.58;96776.38;5113678;28;20024;-61
2021/08/22 07:44:51;;;;;;;3.97;2.97;;;;;;;31.59;26.05;96772.03;5113558;28;20049;-61
2021/08/22 07:47:16;;;;;;;4.47;3.53;;;;;;;31.59;26.32;96774.72;5113390;28;20015;-60
2021/08/22 07:49:42;;;;;;;5.38;3.20;;;;;;;31.54;27.70;96768.19;5113496;28;20023;-60
2021/08/22 07:52:07;;;;;;;3.80;3.25;;;;;;;31.72;27.74;96768.66;5113572;28;20095;-62
2021/08/22 07:54:33;;;;;;;4.60;3.70;;;;;;;31.63;26.42;96773.31;5113519;28;20092;-60
2021/08/22 07:57:00;;;;;;;4.40;3.42;;;;;;;31.76;26.81;96769.94;5113476;28;20431;-61
2021/08/22 07:59:25;;;;;;;4.88;3.30;;;;;;;31.85;26.82;96767.16;5113651;28;20027;-62
2021/08/22 08:01:51;;;;;;;5.55;3.17;;;;;;;31.67;26.31;96771.09;5117489;28;20020;-60
2021/08/22 08:04:17;;;;;;;4.88;3.65;;;;;;;31.15;26.91;96770.91;5117521;28;20024;-61
2021/08/22 08:06:42;;;;;;;5.60;3.80;;;;;;;31.40;27.80;96768.00;5117494;28;20034;-61
2021/08/22 08:09:08;;;;;;;3.40;3.10;;;;;;;31.30;26.47;96757.44;5117440;28;20020;-61
2021/08/22 08:11:34;;;;;;;4.63;3.42;;;;;;;31.28;26.73;96765.72;5117396;28;20038;-61
2021/08/22 08:14:02;;;;;;;4.70;3.38;;;;;;;31.30;27.13;96753.91;5117374;28;20016;-62
2021/08/22 08:16:28;;;;;;;5.53;3.78;;;;;;;31.45;26.79;96762.88;5117202;28;20020;-61
2021/08/22 08:18:54;;;;;;;4.47;3.72;;;;;;;31.67;27.61;96759.44;5117261;28;20047;-60
2021/08/22 08:21:20;;;;;;;4.63;3.40;;;;;;;31.49;26.53;96761.50;5117150;28;20031;-60
2021/08/22 08:23:45;;;;;;;4.50;3.10;;;;;;;31.59;26.43;96754.94;5116872;28;20047;-61
2021/08/22 08:26:11;;;;;;;4.70;3.20;;;;;;;31.54;26.78;96754.69;5117176;28;20040;-59
2021/08/22 08:28:37;;;;;;;5.70;3.38;;;;;;;31.51;27.71;96764.00;5117132;28;20028;-60
2021/08/22 08:31:03;;;;;;;4.57;3.70;;;;;;;31.55;26.90;96757.22;5117121;28;20430;-59
2021/08/22 08:33:28;;;;;;;5.88;3.50;;;;;;;31.55;27.23;96761.75;5117042;28;20052;-60
2021/08/22 08:35:54;;;;;;;4.32;3.47;;;;;;;31.29;27.71;96763.88;5116814;28;20460;-59
2021/08/22 08:38:19;;;;;;;7.47;3.38;;;;;;;31.15;27.00;96757.41;5116882;28;20035;-59
2021/08/22 08:40:46;;;;;;;4.80;2.83;;;;;;;31.26;28.39;96761.53;5116976;28;20020;-61
2021/08/22 08:43:12;;;;;;;4.13;3.70;;;;;;;31.59;27.47;96747.69;5116867;28;20024;-61
2021/08/22 08:45:51;;;;;;;6.00;4.15;;;;;;;32.13;27.41;96750.22;5116696;28;20026;-60
2021/08/22 08:48:29;;;;;;;5.03;4.18;;;;;;;32.61;25.61;96747.00;5116643;28;20540;-60
2021/08/22 08:51:35;;;;;;;6.30;3.63;;;;;;;32.36;25.97;96746.53;5116716;28;20066;-59
2021/08/22 08:54:11;;;;;;;8.85;4.05;;;;;;;31.78;26.83;96746.28;5053941;28;20119;-61
2021/08/22 08:56:41;;;;;;;10.25;3.95;;;;;;;31.39;26.99;96742.00;5110061;28;20043;-61
2021/08/22 08:59:06;;;;;;;5.70;4.22;;;;;;;31.26;27.08;96746.19;5116634;28;20076;-60
2021/08/22 09:01:32;;;;;;;5.05;3.83;;;;;;;30.98;27.80;96751.34;5116375;28;20028;-60
2021/08/22 09:04:26;;;;;;;5.93;3.22;;;;;;;30.84;28.58;96745.75;5116402;28;20062;-60
2021/08/22 09:07:18;;;;;;;5.10;3.55;;;;;;;31.09;28.74;96739.28;5116401;27;20047;-62
2021/08/22 09:10:17;;;;;;;4.10;3.40;;;;;;;30.98;28.31;96735.16;5087059;28;20474;-61
2021/08/22 09:13:01;;;;;;;5.97;3.70;;;;;;;31.23;27.52;96733.03;5114984;28;20362;-62
2021/08/22 09:15:44;;;;;;;3.75;3.25;;;;;;;31.17;27.83;96722.97;5116078;28;20066;-60
2021/08/22 09:18:46;;;;;;;4.80;3.42;;;;;;;31.19;28.78;96731.75;5116292;28;20525;-62
2021/08/22 09:21:33;;;;;;;5.78;3.75;;;;;;;30.71;27.93;96743.63;5116005;28;20071;-61
2021/08/22 09:24:18;;;;;;;4.82;3.60;;;;;;;30.35;29.59;96730.75;5115882;28;20554;-61
2021/08/22 09:27:11;;;;;;;7.70;3.80;;;;;;;30.50;29.06;96733.53;5115927;28;20216;-62
2021/08/22 09:30:13;;;;;;;8.48;3.35;;;;;;;30.59;28.88;96728.88;5115907;28;20067;-59
2021/08/22 09:33:18;;;;;;;4.97;3.10;;;;;;;30.96;28.33;96726.41;5115887;28;20039;-61
2021/08/22 09:36:02;;;;;;;8.70;3.42;;;;;;;30.46;29.02;96727.63;5115673;28;20035;-60
2021/08/22 09:38:55;;;;;;;6.25;3.85;;;;;;;30.24;28.84;96726.63;5115723;28;20123;-61
2021/08/22 09:42:06;;;;;;;4.95;4.07;;;;;;;30.32;28.42;96726.56;5115698;28;20023;-61
2021/08/22 09:44:44;;;;;;;5.80;4.32;;;;;;;30.15;28.55;96720.41;5099680;28;20063;-61
2021/08/22 09:47:47;;;;;;;5.88;4.18;;;;;;;30.26;28.48;96717.34;5115626;28;20425;-59
2021/08/22 09:50:40;;;;;;;4.60;3.88;;;;;;;30.42;27.69;96723.63;5115548;28;20043;-60
2021/08/22 09:53:43;;;;;;;5.88;4.10;;;;;;;30.37;28.16;96726.03;5115506;28;20422;-61
2021/08/22 09:56:46;;;;;;;5.32;3.63;;;;;;;30.31;28.05;96716.78;5115318;28;20032;-62
2021/08/22 09:59:48;;;;;;;5.85;3.90;;;;;;;30.63;28.28;96720.25;5115347;28;20115;-62
2021/08/22 10:02:42;;;;;;;5.38;4.35;;;;;;;30.97;28.33;96720.00;5115399;28;20107;-60
2021/08/22 10:05:26;;;;;;;5.80;4.07;;;;;;;31.03;28.58;96716.53;5115292;28;20496;-62
2021/08/22 10:08:03;;;;;;;7.78;4.40;;;;;;;31.07;27.66;96722.41;5115121;28;20046;-61
2021/08/22 10:10:45;;;;;;;6.03;4.13;;;;;;;31.00;27.40;96725.03;5110081;27;20016;-62
2021/08/22 10:13:11;;;;;;;4.35;3.40;;;;;;;31.01;26.89;96722.16;5110380;28;20112;-60
2021/08/22 10:15:41;;;;;;;6.70;3.88;;;;;;;31.01;27.88;96729.38;5114999;28;20476;-60
2021/08/22 10:18:07;;;;;;;7.40;4.00;;;;;;;31.02;27.51;96729.22;5115051;28;20062;-61
2021/08/22 10:20:43;;;;;;;8.27;4.45;;;;;;;31.12;26.98;96711.91;5114804;28;20107;-61
2021/08/22 10:23:42;;;;;;;5.13;4.03;;;;;;;30.79;27.00;96717.63;5097236;28;20066;-60
2021/08/22 10:26:28;;;;;;;5.88;4.50;;;;;;;30.38;28.07;96706.97;5094347;28;20034;-60
2021/08/22 10:29:00;;;;;;;7.03;3.83;;;;;;;30.06;27.45;96708.84;5094316;28;20031;-63
2021/08/22 10:31:58;;;;;;;7.28;4.10;;;;;;;30.06;28.22;96708.84;5096158;28;20031;-60
2021/08/22 10:34:27;;;;;;;7.05;4.22;;;;;;;30.11;28.54;96697.53;5111495;28;20046;-60
2021/08/22 10:36:54;;;;;;;4.68;4.10;;;;;;;30.42;27.79;96701.19;5094055;28;20028;-60
2021/08/22 10:39:21;;;;;;;5.38;3.95;;;;;;;30.36;27.76;96698.22;5094129;28;20020;-60
2021/08/22 10:41:46;;;;;;;4.78;4.38;;;;;;;30.51;28.32;96710.91;5094334;28;20039;-60
2021/08/22 10:44:34;;;;;;;4.78;3.90;;;;;;;30.42;27.04;96702.03;5094128;28;20016;-61
2021/08/22 10:47:03;;;;;;;5.00;4.25;;;;;;;30.51;27.38;96702.81;5093972;28;20020;-61
2021/08/22 10:49:53;;;;;;;5.07;4.20;;;;;;;30.34;29.07;96710.22;5094024;28;20053;-60
2021/08/22 10:52:27;;;;;;;6.30;4.00;;;;;;;30.07;27.94;96704.31;5094047;28;20032;-60
2021/08/22 10:55:13;;;;;;;6.47;4.15;;;;;;;29.87;28.56;96704.75;5094917;28;20070;-62
2021/08/22 10:57:45;;;;;;;7.07;3.85;;;;;;;29.66;29.44;96703.50;5099230;28;20027;-61
2021/08/22 11:00:30;;;;;;;8.27;3.70;;;;;;;29.54;30.56;96704.88;5114130;28;20118;-61
2021/08/22 11:03:19;;;;;;;5.47;4.45;;;;;;;29.65;29.65;96709.94;5114079;28;20059;-61
2021/08/22 11:05:47;;;;;;;5.75;4.25;;;;;;;29.48;30.14;96696.50;5113683;28;20038;-61
2021/08/22 11:08:20;;;;;;;9.68;4.20;;;;;;;29.73;29.61;96695.56;5112132;28;20115;-62
2021/08/22 11:11:00;;;;;;;10.63;4.40;;;;;;;30.16;28.82;96691.59;5114009;28;20106;-60
2021/08/22 11:13:32;;;;;;;3.83;3.47;;;;;;;30.36;28.26;96697.38;5113837;28;20381;-62
2021/08/22 11:16:05;;;;;;;8.57;3.90;;;;;;;30.52;27.92;96691.03;5113753;28;20035;-60
2021/08/22 11:18:32;;;;;;;6.13;3.85;;;;;;;30.42;27.96;96685.00;5113887;27;20149;-61
2021/08/22 11:20:57;;;;;;;6.07;4.22;;;;;;;30.26;28.75;96686.84;5110705;28;20023;-61
2021/08/22 11:23:24;;;;;;;6.22;4.15;;;;;;;30.03;29.47;96693.03;5113489;28;20528;-62
2021/08/22 11:26:06;;;;;;;4.55;4.07;;;;;;;29.98;29.46;96677.38;5113783;28;20480;-62
2021/08/22 11:28:32;;;;;;;6.18;4.18;;;;;;;30.18;28.96;96684.19;5113771;28;20535;-61
2021/08/22 11:30:58;;;;;;;4.93;4.03;;;;;;;30.24;28.66;96681.63;5113649;28;20089;-60
2021/08/22 11:33:28;;;;;;;6.97;3.88;;;;;;;30.44;29.48;96678.44;5111728;28;20031;-61
2021/08/22 11:35:55;;;;;;;5.38;3.97;;;;;;;30.64;28.80;96669.84;5112870;28;20028;-60
2021/08/22 11:38:21;;;;;;;8.73;4.35;;;;;;;30.71;27.45;96670.78;5113641;28;20133;-60
2021/08/22 11:41:01;;;;;;;4.90;4.40;;;;;;;30.51;27.26;96678.53;5113660;28;20027;-60
2021/08/22 11:43:27;;;;;;;6.20;4.60;;;;;;;30.49;28.50;96677.91;5113601;28;20032;-61
2021/08/22 11:45:52;;;;;;;5.32;4.32;;;;;;;30.38;27.65;96671.91;5111727;28;20360;-62
2021/08/22 11:48:24;;;;;;;4.88;4.05;;;;;;;30.42;27.70;96674.22;5113379;28;20019;-63